Albatross — V7FX9 — position and weather

sailwx.info

Track history (hours):
 
Tides and Currents Weather Stations Pressure Air Temp Water Temp Dewpoint Dewpoint Depression Visibility Wind Speed Wind Dir Waves Ship Positions

Albatross

Last reported at 2018-Feb-05 21:50 UTC. Time now 2018-Feb-22 01:23 UTC.
Position N 01°14' E 103°57'.
Warning: this ship's position is 16 days out of date.

; draft 10.1 m.

Type: Ship. MMSI: 538002042.

Date/timePositionNaut miles runAvg speedWind from/ knotsBaromVisibWave heightAir tempDewpointWater temp
2018-Feb-05 21:50N 01°14' E 103°57'310.2
2018-Feb-05 21:30N 01°12' E 103°54'5 9.8
2018-Feb-05 21:00N 01°10' E 103°49'5 9.2
2018-Feb-05 20:30N 01°08' E 103°46'13 8.7
2018-Feb-05 18:59N 01°07' E 103°32'4 8.8
2018-Feb-05 18:30N 01°11' E 103°34'510.6
2018-Feb-05 17:59N 01°12' E 103°39'3 6.6
2018-Feb-05 17:30N 01°14' E 103°42'0 0.0
2018-Feb-05 16:09N 01°14' E 103°41'0 0.0
2018-Feb-05 15:12N 01°14' E 103°41'0 0.0
2018-Feb-05 14:48N 01°14' E 103°41'0 0.0
2018-Feb-05 14:27N 01°14' E 103°41'0 0.0
2018-Feb-05 13:36N 01°14' E 103°41'0 0.0
2018-Feb-05 13:27N 01°14' E 103°41'0 0.0
2018-Feb-05 12:24N 01°14' E 103°41'0 0.0
2018-Feb-05 11:15N 01°14' E 103°41'0 0.0
2018-Feb-05 10:57N 01°14' E 103°41'0 0.0
2018-Feb-05 10:30N 01°14' E 103°41'0 0.0
2018-Feb-05 09:39N 01°14' E 103°41'0 0.0
2018-Feb-05 09:27N 01°14' E 103°41'0 0.0
2018-Feb-05 09:00N 01°14' E 103°41'0 0.0
2018-Feb-05 08:24N 01°14' E 103°41'0 0.0
2018-Feb-05 07:57N 01°14' E 103°41'0 0.0
2018-Feb-05 07:27N 01°14' E 103°41'0 0.0
2018-Feb-05 06:54N 01°14' E 103°41'0 0.0
2018-Feb-05 06:24N 01°14' E 103°41'0 0.0
2018-Feb-05 05:24N 01°14' E 103°41'0 0.0
2018-Feb-05 05:00N 01°14' E 103°41'0 0.0
2018-Feb-05 04:30N 01°14' E 103°41'0 0.0
2018-Feb-05 04:00N 01°14' E 103°41'0 0.0
2018-Feb-05 03:27N 01°14' E 103°41'0 0.0
2018-Feb-05 02:57N 01°14' E 103°41'0 0.0
2018-Feb-05 02:15N 01°14' E 103°41'0 0.0
2018-Feb-05 01:57N 01°14' E 103°41'0 0.0
2018-Feb-05 01:30N 01°14' E 103°41'0 0.0
2018-Feb-05 01:00N 01°14' E 103°41'0 0.0
2018-Feb-05 00:30N 01°14' E 103°41'0 0.0
2018-Feb-04 23:54N 01°14' E 103°41'0 0.0
2018-Feb-04 23:27N 01°14' E 103°41'0 0.0
2018-Feb-04 22:54N 01°14' E 103°41'0 0.0
2018-Feb-04 22:18N 01°14' E 103°41'0 0.0
2018-Feb-04 22:00N 01°14' E 103°41'0 0.0
2018-Feb-04 21:30N 01°14' E 103°41'0 0.0
2018-Feb-04 20:57N 01°14' E 103°41'0 0.0
2018-Feb-04 19:54N 01°14' E 103°41'0 0.0
2018-Feb-04 19:21N 01°14' E 103°41'0 1.2
2018-Feb-04 18:59N 01°14' E 103°41'3 5.2
2018-Feb-04 18:30N 01°13' E 103°39'0 0.1
2018-Feb-04 17:49N 01°13' E 103°39'0 0.0
2018-Feb-04 17:19N 01°13' E 103°39'0 0.0
2018-Feb-04 15:25N 01°13' E 103°39'0 0.0
2018-Feb-04 14:34N 01°13' E 103°39'0 0.0
2018-Feb-04 14:16N 01°13' E 103°39'0 0.2
2018-Feb-04 13:58N 01°13' E 103°39'0 0.2
2018-Feb-04 13:19N 01°13' E 103°39'1 1.8
2018-Feb-04 12:58N 01°13' E 103°39'2 3.3
2018-Feb-04 12:27N 01°11' E 103°40'1 2.6
2018-Feb-04 12:00N 01°11' E 103°41'2 3.9
2018-Feb-04 11:30N 01°09' E 103°42'10 6.5
2018-Feb-04 10:00N 01°12' E 103°52'7 0.2
2018-Feb-02 14:25N 01°14' E 103°59'410.9
2018-Feb-02 14:00N 01°13' E 103°55'510.8
2018-Feb-02 13:30N 01°10' E 103°50'611.8
2018-Feb-02 13:00N 01°07' E 103°45'612.1
2018-Feb-02 12:30N 01°03' E 103°40'5 9.4
2018-Feb-02 12:00N 01°05' E 103°36'5 9.5
2018-Feb-02 11:29N 01°08' E 103°32'510.8
2018-Feb-02 11:00N 01°11' E 103°37'4 7.0
2018-Feb-02 10:30N 01°13' E 103°40'1 1.2
2018-Feb-02 09:56N 01°13' E 103°39'0 0.0
2018-Feb-02 09:29N 01°13' E 103°39'0 0.0
2018-Feb-02 08:47N 01°13' E 103°39'0 0.0
2018-Feb-02 08:23N 01°13' E 103°39'0 0.0
2018-Feb-02 07:56N 01°13' E 103°39'0 0.0
2018-Feb-02 07:24N 01°13' E 103°39'0 0.0
2018-Feb-02 06:50N 01°13' E 103°39'0 0.0
2018-Feb-02 06:29N 01°13' E 103°39'0 0.0
2018-Feb-02 05:56N 01°13' E 103°39'0 0.0
2018-Feb-02 05:29N 01°13' E 103°39'0 0.0
2018-Feb-02 04:54N 01°13' E 103°39'0 0.0
2018-Feb-02 04:29N 01°13' E 103°39'0 0.1
2018-Feb-02 03:56N 01°13' E 103°39'0 0.0
2018-Feb-02 03:23N 01°13' E 103°39'0 0.0
2018-Feb-02 02:53N 01°13' E 103°39'0 0.0
2018-Feb-02 02:29N 01°13' E 103°39'0 0.0
2018-Feb-02 02:00N 01°13' E 103°39'0 0.0
2018-Feb-02 01:30N 01°13' E 103°39'1 2.6
2018-Feb-02 00:59N 01°13' E 103°40'611.6
2018-Feb-02 00:30N 01°17' E 103°45'1 2.7
2018-Feb-02 00:00N 01°18' E 103°44'0 0.0
2018-Feb-01 23:30N 01°18' E 103°44'0 0.0
2018-Feb-01 22:45N 01°18' E 103°44'0 0.0
2018-Feb-01 21:57N 01°18' E 103°44'0 0.0
2018-Feb-01 21:30N 01°18' E 103°44'0 0.0
2018-Feb-01 19:27N 01°18' E 103°44'0 0.0
2018-Feb-01 18:57N 01°18' E 103°44'0 0.0
2018-Feb-01 18:27N 01°18' E 103°44'0 0.0
2018-Feb-01 17:39N 01°18' E 103°44'0 0.0
2018-Feb-01 17:21N 01°18' E 103°44'0 0.0
2018-Feb-01 16:57N 01°18' E 103°44'0 0.0
2018-Feb-01 15:51N 01°18' E 103°44'0 0.0
2018-Feb-01 15:24N 01°18' E 103°44'0 0.0
2018-Feb-01 14:57N 01°18' E 103°44'0 0.0
2018-Feb-01 13:30N 01°18' E 103°44'0 0.0
2018-Feb-01 12:57N 01°18' E 103°44'0 0.0
2018-Feb-01 12:27N 01°18' E 103°44'0 0.0
2018-Feb-01 11:57N 01°18' E 103°44'0 0.0
2018-Feb-01 10:57N 01°18' E 103°44'0 0.0
2018-Feb-01 10:30N 01°18' E 103°44'0 0.0
2018-Feb-01 09:57N 01°18' E 103°44'0 0.0
2018-Feb-01 09:30N 01°18' E 103°44'0 0.0
2018-Feb-01 08:57N 01°18' E 103°44'0 0.0
2018-Feb-01 08:27N 01°18' E 103°44'0 0.0
2018-Feb-01 07:31N 01°18' E 103°44'2 4.3
2018-Feb-01 07:01N 01°16' E 103°45'2 4.5
2018-Feb-01 06:31N 01°15' E 103°44'3 6.0
2018-Feb-01 06:00N 01°13' E 103°41'0 0.1
2018-Feb-01 05:29N 01°13' E 103°41'0 0.1
2018-Feb-01 04:59N 01°13' E 103°41'0 0.2
2018-Feb-01 04:29N 01°13' E 103°41'0 0.1
2018-Feb-01 03:59N 01°13' E 103°41'0 0.0
2018-Feb-01 02:59N 01°13' E 103°41'0 0.1
2018-Feb-01 02:30N 01°13' E 103°41'3 5.7
2018-Feb-01 01:59N 01°15' E 103°43'0 0.1
2018-Feb-01 01:30N 01°15' E 103°43'0 0.0
2018-Feb-01 00:57N 01°15' E 103°43'0 0.0
2018-Feb-01 00:30N 01°15' E 103°43'0 0.0
2018-Jan-31 23:42N 01°15' E 103°43'0 0.0
2018-Jan-31 22:57N 01°15' E 103°43'0 0.0
2018-Jan-31 22:27N 01°15' E 103°43'0 0.0
2018-Jan-31 20:57N 01°15' E 103°43'0 0.0
2018-Jan-31 20:27N 01°15' E 103°43'0 0.0
2018-Jan-31 19:57N 01°15' E 103°43'0 0.0
2018-Jan-31 19:30N 01°15' E 103°43'0 0.0
2018-Jan-31 18:42N 01°15' E 103°43'0 0.0
2018-Jan-31 18:18N 01°15' E 103°43'0 0.0
2018-Jan-31 18:00N 01°15' E 103°43'0 0.0
2018-Jan-31 17:27N 01°15' E 103°43'0 0.0
2018-Jan-31 16:45N 01°15' E 103°43'0 0.0
2018-Jan-31 16:30N 01°15' E 103°43'0 0.0
2018-Jan-31 15:54N 01°15' E 103°43'0 0.0
2018-Jan-31 15:30N 01°15' E 103°43'0 0.0
2018-Jan-31 15:00N 01°15' E 103°43'0 0.0
2018-Jan-31 14:30N 01°15' E 103°43'0 0.0
2018-Jan-31 12:48N 01°15' E 103°43'0 0.0
2018-Jan-31 12:30N 01°15' E 103°43'0 0.0
2018-Jan-31 12:00N 01°15' E 103°43'0 0.0
2018-Jan-31 11:30N 01°15' E 103°43'0 0.0
2018-Jan-31 10:57N 01°15' E 103°43'0 0.0
2018-Jan-31 10:21N 01°15' E 103°43'0 0.0
2018-Jan-31 10:00N 01°15' E 103°43'0 0.4
2018-Jan-31 09:30N 01°15' E 103°43'3 6.5
2018-Jan-31 09:00N 01°13' E 103°40'2 3.1
2018-Jan-31 08:29N 01°13' E 103°39'0 0.0
2018-Jan-31 07:59N 01°13' E 103°39'0 0.0
2018-Jan-31 07:29N 01°13' E 103°39'0 0.0
2018-Jan-31 06:59N 01°13' E 103°39'0 0.0
2018-Jan-31 06:20N 01°13' E 103°39'0 0.1
2018-Jan-31 05:56N 01°13' E 103°39'0 0.0
2018-Jan-31 05:29N 01°13' E 103°39'0 0.1
2018-Jan-31 04:59N 01°13' E 103°39'0 0.1
2018-Jan-31 04:26N 01°13' E 103°39'0 0.2
2018-Jan-31 03:59N 01°13' E 103°39'0 0.1
2018-Jan-31 03:29N 01°13' E 103°39'0 0.3
2018-Jan-31 03:00N 01°13' E 103°39'1 2.6
2018-Jan-31 02:30N 01°12' E 103°39'2 3.9
2018-Jan-31 02:00N 01°11' E 103°41'3 6.6
2018-Jan-31 01:30N 01°09' E 103°43'4 7.5
2018-Jan-31 01:00N 01°10' E 103°47'9 8.7
2018-Jan-31 00:00N 01°14' E 103°55'  
2018-Jan-27 17:58N 01°14' E 103°57'4 8.8
2018-Jan-27 17:30N 01°12' E 103°53'4 8.2
2018-Jan-27 17:00N 01°10' E 103°49'4 8.3
2018-Jan-27 16:30N 01°08' E 103°46'5 8.8
2018-Jan-27 15:54N 01°04' E 103°42'8 7.8
2018-Jan-27 14:51N 01°06' E 103°34'10 9.8
2018-Jan-27 13:48N 01°11' E 103°25'6 9.9
2018-Jan-27 13:10N 01°15' E 103°20'  
Track history (hours):
 
Tides and Currents Weather Stations Pressure Air Temp Water Temp Dewpoint Dewpoint Depression Visibility Wind Speed Wind Dir Waves Ship Positions

Albatross

Last reported at 2018-Feb-05 21:50 UTC. Time now 2018-Feb-22 01:23 UTC.
Position N 01°14' E 103°57'.
Warning: this ship's position is 16 days out of date.

; draft 10.1 m.

Type: Ship. MMSI: 538002042.

Date/timePositionNaut miles runAvg speedWind from/ knotsBaromVisibWave heightAir tempDewpointWater temp
2018-Feb-05 21:50N 01°14' E 103°57'310.2
2018-Feb-05 21:30N 01°12' E 103°54'5 9.8
2018-Feb-05 21:00N 01°10' E 103°49'5 9.2
2018-Feb-05 20:30N 01°08' E 103°46'13 8.7
2018-Feb-05 18:59N 01°07' E 103°32'4 8.8
2018-Feb-05 18:30N 01°11' E 103°34'510.6
2018-Feb-05 17:59N 01°12' E 103°39'3 6.6
2018-Feb-05 17:30N 01°14' E 103°42'0 0.0
2018-Feb-05 16:09N 01°14' E 103°41'0 0.0
2018-Feb-05 15:12N 01°14' E 103°41'0 0.0
2018-Feb-05 14:48N 01°14' E 103°41'0 0.0
2018-Feb-05 14:27N 01°14' E 103°41'0 0.0
2018-Feb-05 13:36N 01°14' E 103°41'0 0.0
2018-Feb-05 13:27N 01°14' E 103°41'0 0.0
2018-Feb-05 12:24N 01°14' E 103°41'0 0.0
2018-Feb-05 11:15N 01°14' E 103°41'0 0.0
2018-Feb-05 10:57N 01°14' E 103°41'0 0.0
2018-Feb-05 10:30N 01°14' E 103°41'0 0.0
2018-Feb-05 09:39N 01°14' E 103°41'0 0.0
2018-Feb-05 09:27N 01°14' E 103°41'0 0.0
2018-Feb-05 09:00N 01°14' E 103°41'0 0.0
2018-Feb-05 08:24N 01°14' E 103°41'0 0.0
2018-Feb-05 07:57N 01°14' E 103°41'0 0.0
2018-Feb-05 07:27N 01°14' E 103°41'0 0.0
2018-Feb-05 06:54N 01°14' E 103°41'0 0.0
2018-Feb-05 06:24N 01°14' E 103°41'0 0.0
2018-Feb-05 05:24N 01°14' E 103°41'0 0.0
2018-Feb-05 05:00N 01°14' E 103°41'0 0.0
2018-Feb-05 04:30N 01°14' E 103°41'0 0.0
2018-Feb-05 04:00N 01°14' E 103°41'0 0.0
2018-Feb-05 03:27N 01°14' E 103°41'0 0.0
2018-Feb-05 02:57N 01°14' E 103°41'0 0.0
2018-Feb-05 02:15N 01°14' E 103°41'0 0.0
2018-Feb-05 01:57N 01°14' E 103°41'0 0.0
2018-Feb-05 01:30N 01°14' E 103°41'0 0.0
2018-Feb-05 01:00N 01°14' E 103°41'0 0.0
2018-Feb-05 00:30N 01°14' E 103°41'0 0.0
2018-Feb-04 23:54N 01°14' E 103°41'0 0.0
2018-Feb-04 23:27N 01°14' E 103°41'0 0.0
2018-Feb-04 22:54N 01°14' E 103°41'0 0.0
2018-Feb-04 22:18N 01°14' E 103°41'0 0.0
2018-Feb-04 22:00N 01°14' E 103°41'0 0.0
2018-Feb-04 21:30N 01°14' E 103°41'0 0.0
2018-Feb-04 20:57N 01°14' E 103°41'0 0.0
2018-Feb-04 19:54N 01°14' E 103°41'0 0.0
2018-Feb-04 19:21N 01°14' E 103°41'0 1.2
2018-Feb-04 18:59N 01°14' E 103°41'3 5.2
2018-Feb-04 18:30N 01°13' E 103°39'0 0.1
2018-Feb-04 17:49N 01°13' E 103°39'0 0.0
2018-Feb-04 17:19N 01°13' E 103°39'0 0.0
2018-Feb-04 15:25N 01°13' E 103°39'0 0.0
2018-Feb-04 14:34N 01°13' E 103°39'0 0.0
2018-Feb-04 14:16N 01°13' E 103°39'0 0.2
2018-Feb-04 13:58N 01°13' E 103°39'0 0.2
2018-Feb-04 13:19N 01°13' E 103°39'1 1.8
2018-Feb-04 12:58N 01°13' E 103°39'2 3.3
2018-Feb-04 12:27N 01°11' E 103°40'1 2.6
2018-Feb-04 12:00N 01°11' E 103°41'2 3.9
2018-Feb-04 11:30N 01°09' E 103°42'10 6.5
2018-Feb-04 10:00N 01°12' E 103°52'7 0.2
2018-Feb-02 14:25N 01°14' E 103°59'410.9
2018-Feb-02 14:00N 01°13' E 103°55'510.8
2018-Feb-02 13:30N 01°10' E 103°50'611.8
2018-Feb-02 13:00N 01°07' E 103°45'612.1
2018-Feb-02 12:30N 01°03' E 103°40'5 9.4
2018-Feb-02 12:00N 01°05' E 103°36'5 9.5
2018-Feb-02 11:29N 01°08' E 103°32'510.8
2018-Feb-02 11:00N 01°11' E 103°37'4 7.0
2018-Feb-02 10:30N 01°13' E 103°40'1 1.2
2018-Feb-02 09:56N 01°13' E 103°39'0 0.0
2018-Feb-02 09:29N 01°13' E 103°39'0 0.0
2018-Feb-02 08:47N 01°13' E 103°39'0 0.0
2018-Feb-02 08:23N 01°13' E 103°39'0 0.0
2018-Feb-02 07:56N 01°13' E 103°39'0 0.0
2018-Feb-02 07:24N 01°13' E 103°39'0 0.0
2018-Feb-02 06:50N 01°13' E 103°39'0 0.0
2018-Feb-02 06:29N 01°13' E 103°39'0 0.0
2018-Feb-02 05:56N 01°13' E 103°39'0 0.0
2018-Feb-02 05:29N 01°13' E 103°39'0 0.0
2018-Feb-02 04:54N 01°13' E 103°39'0 0.0
2018-Feb-02 04:29N 01°13' E 103°39'0 0.1
2018-Feb-02 03:56N 01°13' E 103°39'0 0.0
2018-Feb-02 03:23N 01°13' E 103°39'0 0.0
2018-Feb-02 02:53N 01°13' E 103°39'0 0.0
2018-Feb-02 02:29N 01°13' E 103°39'0 0.0
2018-Feb-02 02:00N 01°13' E 103°39'0 0.0
2018-Feb-02 01:30N 01°13' E 103°39'1 2.6
2018-Feb-02 00:59N 01°13' E 103°40'611.6
2018-Feb-02 00:30N 01°17' E 103°45'1 2.7
2018-Feb-02 00:00N 01°18' E 103°44'0 0.0
2018-Feb-01 23:30N 01°18' E 103°44'0 0.0
2018-Feb-01 22:45N 01°18' E 103°44'0 0.0
2018-Feb-01 21:57N 01°18' E 103°44'0 0.0
2018-Feb-01 21:30N 01°18' E 103°44'0 0.0
2018-Feb-01 19:27N 01°18' E 103°44'0 0.0
2018-Feb-01 18:57N 01°18' E 103°44'0 0.0
2018-Feb-01 18:27N 01°18' E 103°44'0 0.0
2018-Feb-01 17:39N 01°18' E 103°44'0 0.0
2018-Feb-01 17:21N 01°18' E 103°44'0 0.0
2018-Feb-01 16:57N 01°18' E 103°44'0 0.0
2018-Feb-01 15:51N 01°18' E 103°44'0 0.0
2018-Feb-01 15:24N 01°18' E 103°44'0 0.0
2018-Feb-01 14:57N 01°18' E 103°44'0 0.0
2018-Feb-01 13:30N 01°18' E 103°44'0 0.0
2018-Feb-01 12:57N 01°18' E 103°44'0 0.0
2018-Feb-01 12:27N 01°18' E 103°44'0 0.0
2018-Feb-01 11:57N 01°18' E 103°44'0 0.0
2018-Feb-01 10:57N 01°18' E 103°44'0 0.0
2018-Feb-01 10:30N 01°18' E 103°44'0 0.0
2018-Feb-01 09:57N 01°18' E 103°44'0 0.0
2018-Feb-01 09:30N 01°18' E 103°44'0 0.0
2018-Feb-01 08:57N 01°18' E 103°44'0 0.0
2018-Feb-01 08:27N 01°18' E 103°44'0 0.0
2018-Feb-01 07:31N 01°18' E 103°44'2 4.3
2018-Feb-01 07:01N 01°16' E 103°45'2 4.5
2018-Feb-01 06:31N 01°15' E 103°44'3 6.0
2018-Feb-01 06:00N 01°13' E 103°41'0 0.1
2018-Feb-01 05:29N 01°13' E 103°41'0 0.1
2018-Feb-01 04:59N 01°13' E 103°41'0 0.2
2018-Feb-01 04:29N 01°13' E 103°41'0 0.1
2018-Feb-01 03:59N 01°13' E 103°41'0 0.0
2018-Feb-01 02:59N 01°13' E 103°41'0 0.1
2018-Feb-01 02:30N 01°13' E 103°41'3 5.7
2018-Feb-01 01:59N 01°15' E 103°43'0 0.1
2018-Feb-01 01:30N 01°15' E 103°43'0 0.0
2018-Feb-01 00:57N 01°15' E 103°43'0 0.0
2018-Feb-01 00:30N 01°15' E 103°43'0 0.0
2018-Jan-31 23:42N 01°15' E 103°43'0 0.0
2018-Jan-31 22:57N 01°15' E 103°43'0 0.0
2018-Jan-31 22:27N 01°15' E 103°43'0 0.0
2018-Jan-31 20:57N 01°15' E 103°43'0 0.0
2018-Jan-31 20:27N 01°15' E 103°43'0 0.0
2018-Jan-31 19:57N 01°15' E 103°43'0 0.0
2018-Jan-31 19:30N 01°15' E 103°43'0 0.0
2018-Jan-31 18:42N 01°15' E 103°43'0 0.0
2018-Jan-31 18:18N 01°15' E 103°43'0 0.0
2018-Jan-31 18:00N 01°15' E 103°43'0 0.0
2018-Jan-31 17:27N 01°15' E 103°43'0 0.0
2018-Jan-31 16:45N 01°15' E 103°43'0 0.0
2018-Jan-31 16:30N 01°15' E 103°43'0 0.0
2018-Jan-31 15:54N 01°15' E 103°43'0 0.0
2018-Jan-31 15:30N 01°15' E 103°43'0 0.0
2018-Jan-31 15:00N 01°15' E 103°43'0 0.0
2018-Jan-31 14:30N 01°15' E 103°43'0 0.0
2018-Jan-31 12:48N 01°15' E 103°43'0 0.0
2018-Jan-31 12:30N 01°15' E 103°43'0 0.0
2018-Jan-31 12:00N 01°15' E 103°43'0 0.0
2018-Jan-31 11:30N 01°15' E 103°43'0 0.0
2018-Jan-31 10:57N 01°15' E 103°43'0 0.0
2018-Jan-31 10:21N 01°15' E 103°43'0 0.0
2018-Jan-31 10:00N 01°15' E 103°43'0 0.4
2018-Jan-31 09:30N 01°15' E 103°43'3 6.5
2018-Jan-31 09:00N 01°13' E 103°40'2 3.1
2018-Jan-31 08:29N 01°13' E 103°39'0 0.0
2018-Jan-31 07:59N 01°13' E 103°39'0 0.0
2018-Jan-31 07:29N 01°13' E 103°39'0 0.0
2018-Jan-31 06:59N 01°13' E 103°39'0 0.0
2018-Jan-31 06:20N 01°13' E 103°39'0 0.1
2018-Jan-31 05:56N 01°13' E 103°39'0 0.0
2018-Jan-31 05:29N 01°13' E 103°39'0 0.1
2018-Jan-31 04:59N 01°13' E 103°39'0 0.1
2018-Jan-31 04:26N 01°13' E 103°39'0 0.2
2018-Jan-31 03:59N 01°13' E 103°39'0 0.1
2018-Jan-31 03:29N 01°13' E 103°39'0 0.3
2018-Jan-31 03:00N 01°13' E 103°39'1 2.6
2018-Jan-31 02:30N 01°12' E 103°39'2 3.9
2018-Jan-31 02:00N 01°11' E 103°41'3 6.6
2018-Jan-31 01:30N 01°09' E 103°43'4 7.5
2018-Jan-31 01:00N 01°10' E 103°47'9 8.7
2018-Jan-31 00:00N 01°14' E 103°55'  
2018-Jan-27 17:58N 01°14' E 103°57'4 8.8
2018-Jan-27 17:30N 01°12' E 103°53'4 8.2
2018-Jan-27 17:00N 01°10' E 103°49'4 8.3
2018-Jan-27 16:30N 01°08' E 103°46'5 8.8
2018-Jan-27 15:54N 01°04' E 103°42'8 7.8
2018-Jan-27 14:51N 01°06' E 103°34'10 9.8
2018-Jan-27 13:48N 01°11' E 103°25'6 9.9
2018-Jan-27 13:10N 01°15' E 103°20'  

Dump ship's entire track history